sensor_id;sensor_type;location;lat;lon;timestamp;P1;durP1;ratioP1;P2;durP2;ratioP2
4889;SDS011;2459;42.268;23.112;2023-03-14T00:01:26;28.27;;;9.13;;
4889;SDS011;2459;42.268;23.112;2023-03-14T00:03:53;18.90;;;9.53;;
4889;SDS011;2459;42.268;23.112;2023-03-14T00:06:21;24.30;;;10.90;;
4889;SDS011;2459;42.268;23.112;2023-03-14T00:08:47;16.70;;;9.70;;
4889;SDS011;2459;42.268;23.112;2023-03-14T00:11:15;25.50;;;10.83;;
4889;SDS011;2459;42.268;23.112;2023-03-14T00:13:42;27.63;;;10.10;;
4889;SDS011;2459;42.268;23.112;2023-03-14T00:16:09;24.83;;;9.77;;
4889;SDS011;2459;42.268;23.112;2023-03-14T00:18:36;24.33;;;11.90;;
4889;SDS011;2459;42.268;23.112;2023-03-14T00:21:03;32.67;;;14.30;;
4889;SDS011;2459;42.268;23.112;2023-03-14T00:23:32;27.07;;;11.20;;
4889;SDS011;2459;42.268;23.112;2023-03-14T00:25:59;36.80;;;11.93;;
4889;SDS011;2459;42.268;23.112;2023-03-14T00:28:26;49.87;;;17.90;;
4889;SDS011;2459;42.268;23.112;2023-03-14T00:30:52;48.53;;;15.57;;
4889;SDS011;2459;42.268;23.112;2023-03-14T00:33:19;31.30;;;11.50;;
4889;SDS011;2459;42.268;23.112;2023-03-14T00:35:51;25.60;;;11.90;;
4889;SDS011;2459;42.268;23.112;2023-03-14T00:38:18;22.03;;;10.27;;
4889;SDS011;2459;42.268;23.112;2023-03-14T00:40:46;32.03;;;11.13;;
4889;SDS011;2459;42.268;23.112;2023-03-14T00:43:12;29.97;;;11.07;;
4889;SDS011;2459;42.268;23.112;2023-03-14T00:45:39;25.37;;;10.07;;
4889;SDS011;2459;42.268;23.112;2023-03-14T00:48:05;27.30;;;10.43;;
4889;SDS011;2459;42.268;23.112;2023-03-14T00:50:32;34.70;;;12.33;;
4889;SDS011;2459;42.268;23.112;2023-03-14T00:52:58;21.53;;;9.20;;
4889;SDS011;2459;42.268;23.112;2023-03-14T00:55:25;22.80;;;9.50;;
4889;SDS011;2459;42.268;23.112;2023-03-14T00:57:52;28.43;;;10.40;;
4889;SDS011;2459;42.268;23.112;2023-03-14T01:00:19;33.87;;;9.90;;
4889;SDS011;2459;42.268;23.112;2023-03-14T01:02:46;18.70;;;9.00;;
4889;SDS011;2459;42.268;23.112;2023-03-14T01:05:12;24.23;;;10.17;;
4889;SDS011;2459;42.268;23.112;2023-03-14T01:07:39;19.83;;;9.47;;
4889;SDS011;2459;42.268;23.112;2023-03-14T01:10:06;16.50;;;7.20;;
4889;SDS011;2459;42.268;23.112;2023-03-14T01:12:32;16.17;;;8.70;;
4889;SDS011;2459;42.268;23.112;2023-03-14T01:15:01;13.63;;;7.83;;
4889;SDS011;2459;42.268;23.112;2023-03-14T01:17:27;14.17;;;7.60;;
4889;SDS011;2459;42.268;23.112;2023-03-14T01:19:54;36.73;;;10.50;;
4889;SDS011;2459;42.268;23.112;2023-03-14T01:22:20;14.80;;;6.90;;
4889;SDS011;2459;42.268;23.112;2023-03-14T01:24:47;14.63;;;7.00;;
4889;SDS011;2459;42.268;23.112;2023-03-14T01:27:13;27.30;;;10.43;;
4889;SDS011;2459;42.268;23.112;2023-03-14T01:29:40;21.33;;;9.87;;
4889;SDS011;2459;42.268;23.112;2023-03-14T01:32:08;17.33;;;7.10;;
4889;SDS011;2459;42.268;23.112;2023-03-14T01:34:34;23.80;;;8.10;;
4889;SDS011;2459;42.268;23.112;2023-03-14T01:37:01;36.93;;;14.73;;
4889;SDS011;2459;42.268;23.112;2023-03-14T01:39:27;25.23;;;10.73;;
4889;SDS011;2459;42.268;23.112;2023-03-14T01:41:54;17.90;;;8.13;;
4889;SDS011;2459;42.268;23.112;2023-03-14T01:44:21;20.60;;;8.17;;
4889;SDS011;2459;42.268;23.112;2023-03-14T01:46:47;51.80;;;10.90;;
4889;SDS011;2459;42.268;23.112;2023-03-14T01:49:22;14.77;;;7.50;;
4889;SDS011;2459;42.268;23.112;2023-03-14T01:51:52;26.33;;;10.90;;
4889;SDS011;2459;42.268;23.112;2023-03-14T01:54:21;15.90;;;7.00;;
4889;SDS011;2459;42.268;23.112;2023-03-14T01:56:50;12.00;;;6.70;;
4889;SDS011;2459;42.268;23.112;2023-03-14T01:59:18;23.97;;;9.67;;
4889;SDS011;2459;42.268;23.112;2023-03-14T02:01:45;32.63;;;13.00;;
4889;SDS011;2459;42.268;23.112;2023-03-14T02:04:12;17.33;;;8.13;;
4889;SDS011;2459;42.268;23.112;2023-03-14T02:06:44;15.80;;;8.07;;
4889;SDS011;2459;42.268;23.112;2023-03-14T02:09:12;14.80;;;7.30;;
4889;SDS011;2459;42.268;23.112;2023-03-14T02:11:38;16.63;;;6.50;;
4889;SDS011;2459;42.268;23.112;2023-03-14T02:14:05;14.40;;;7.30;;
4889;SDS011;2459;42.268;23.112;2023-03-14T02:16:34;39.03;;;14.00;;
4889;SDS011;2459;42.268;23.112;2023-03-14T02:19:01;40.03;;;16.40;;
4889;SDS011;2459;42.268;23.112;2023-03-14T02:21:30;24.83;;;8.40;;
4889;SDS011;2459;42.268;23.112;2023-03-14T02:24:02;17.80;;;6.83;;
4889;SDS011;2459;42.268;23.112;2023-03-14T02:26:32;15.10;;;7.53;;
4889;SDS011;2459;42.268;23.112;2023-03-14T02:29:03;15.67;;;7.10;;
4889;SDS011;2459;42.268;23.112;2023-03-14T02:31:29;23.30;;;9.03;;
4889;SDS011;2459;42.268;23.112;2023-03-14T02:33:56;17.53;;;9.20;;
4889;SDS011;2459;42.268;23.112;2023-03-14T02:36:23;14.00;;;7.30;;
4889;SDS011;2459;42.268;23.112;2023-03-14T02:38:50;45.07;;;11.80;;
4889;SDS011;2459;42.268;23.112;2023-03-14T02:41:18;13.53;;;7.10;;
4889;SDS011;2459;42.268;23.112;2023-03-14T02:43:44;16.23;;;6.40;;
4889;SDS011;2459;42.268;23.112;2023-03-14T02:46:13;99.87;;;29.17;;
4889;SDS011;2459;42.268;23.112;2023-03-14T02:48:41;83.27;;;24.83;;
4889;SDS011;2459;42.268;23.112;2023-03-14T02:51:09;91.77;;;25.60;;
4889;SDS011;2459;42.268;23.112;2023-03-14T02:53:36;117.77;;;35.40;;
4889;SDS011;2459;42.268;23.112;2023-03-14T02:56:03;22.63;;;8.37;;
4889;SDS011;2459;42.268;23.112;2023-03-14T02:58:30;12.80;;;6.70;;
4889;SDS011;2459;42.268;23.112;2023-03-14T03:00:57;13.00;;;7.30;;
4889;SDS011;2459;42.268;23.112;2023-03-14T03:03:25;14.13;;;8.50;;
4889;SDS011;2459;42.268;23.112;2023-03-14T03:05:52;15.87;;;7.33;;
4889;SDS011;2459;42.268;23.112;2023-03-14T03:08:19;20.07;;;8.47;;
4889;SDS011;2459;42.268;23.112;2023-03-14T03:10:46;17.37;;;8.40;;
4889;SDS011;2459;42.268;23.112;2023-03-14T03:13:12;18.73;;;7.60;;
4889;SDS011;2459;42.268;23.112;2023-03-14T03:15:39;16.03;;;7.97;;
4889;SDS011;2459;42.268;23.112;2023-03-14T03:18:06;18.33;;;8.87;;
4889;SDS011;2459;42.268;23.112;2023-03-14T03:20:34;23.73;;;9.63;;
4889;SDS011;2459;42.268;23.112;2023-03-14T03:23:00;40.67;;;12.37;;
4889;SDS011;2459;42.268;23.112;2023-03-14T03:25:27;36.40;;;12.53;;
4889;SDS011;2459;42.268;23.112;2023-03-14T03:27:53;18.90;;;7.70;;
4889;SDS011;2459;42.268;23.112;2023-03-14T03:30:20;23.83;;;9.20;;
4889;SDS011;2459;42.268;23.112;2023-03-14T03:32:46;22.87;;;8.67;;
4889;SDS011;2459;42.268;23.112;2023-03-14T03:35:13;23.77;;;7.93;;
4889;SDS011;2459;42.268;23.112;2023-03-14T03:37:41;16.37;;;8.17;;
4889;SDS011;2459;42.268;23.112;2023-03-14T03:40:08;35.47;;;15.10;;
4889;SDS011;2459;42.268;23.112;2023-03-14T03:42:34;29.40;;;11.40;;
4889;SDS011;2459;42.268;23.112;2023-03-14T03:45:02;42.73;;;14.13;;
4889;SDS011;2459;42.268;23.112;2023-03-14T03:47:29;35.03;;;8.87;;
4889;SDS011;2459;42.268;23.112;2023-03-14T03:49:56;11.53;;;6.27;;
4889;SDS011;2459;42.268;23.112;2023-03-14T03:52:22;15.80;;;7.87;;
4889;SDS011;2459;42.268;23.112;2023-03-14T03:54:50;31.93;;;13.93;;
4889;SDS011;2459;42.268;23.112;2023-03-14T03:57:17;29.20;;;11.40;;
4889;SDS011;2459;42.268;23.112;2023-03-14T03:59:43;33.37;;;13.53;;
4889;SDS011;2459;42.268;23.112;2023-03-14T04:02:10;45.10;;;16.20;;
4889;SDS011;2459;42.268;23.112;2023-03-14T04:04:36;27.33;;;11.70;;
4889;SDS011;2459;42.268;23.112;2023-03-14T04:07:03;25.10;;;8.43;;
4889;SDS011;2459;42.268;23.112;2023-03-14T04:09:31;34.97;;;17.57;;
4889;SDS011;2459;42.268;23.112;2023-03-14T04:11:59;23.03;;;9.10;;
4889;SDS011;2459;42.268;23.112;2023-03-14T04:14:25;77.13;;;25.47;;
4889;SDS011;2459;42.268;23.112;2023-03-14T04:16:52;20.10;;;10.10;;
4889;SDS011;2459;42.268;23.112;2023-03-14T04:19:18;48.50;;;14.77;;
4889;SDS011;2459;42.268;23.112;2023-03-14T04:21:45;16.30;;;8.00;;
4889;SDS011;2459;42.268;23.112;2023-03-14T04:24:12;19.23;;;9.83;;
4889;SDS011;2459;42.268;23.112;2023-03-14T04:26:38;26.47;;;10.00;;
4889;SDS011;2459;42.268;23.112;2023-03-14T04:29:06;34.50;;;12.43;;
4889;SDS011;2459;42.268;23.112;2023-03-14T04:31:33;24.47;;;9.40;;
4889;SDS011;2459;42.268;23.112;2023-03-14T04:33:59;22.10;;;9.70;;
4889;SDS011;2459;42.268;23.112;2023-03-14T04:36:26;26.63;;;9.93;;
4889;SDS011;2459;42.268;23.112;2023-03-14T04:38:52;17.77;;;7.20;;
4889;SDS011;2459;42.268;23.112;2023-03-14T04:41:19;24.80;;;8.83;;
4889;SDS011;2459;42.268;23.112;2023-03-14T04:43:45;36.10;;;9.27;;
4889;SDS011;2459;42.268;23.112;2023-03-14T04:46:13;25.33;;;9.27;;
4889;SDS011;2459;42.268;23.112;2023-03-14T04:48:39;20.83;;;9.30;;
4889;SDS011;2459;42.268;23.112;2023-03-14T04:51:06;26.00;;;10.97;;
4889;SDS011;2459;42.268;23.112;2023-03-14T04:53:33;35.17;;;12.80;;
4889;SDS011;2459;42.268;23.112;2023-03-14T04:56:00;29.80;;;10.70;;
4889;SDS011;2459;42.268;23.112;2023-03-14T04:58:27;17.47;;;8.87;;
4889;SDS011;2459;42.268;23.112;2023-03-14T05:00:54;36.20;;;14.47;;
4889;SDS011;2459;42.268;23.112;2023-03-14T05:03:21;29.37;;;10.63;;
4889;SDS011;2459;42.268;23.112;2023-03-14T05:05:48;30.37;;;13.60;;
4889;SDS011;2459;42.268;23.112;2023-03-14T05:08:14;58.43;;;20.17;;
4889;SDS011;2459;42.268;23.112;2023-03-14T05:10:41;22.60;;;11.23;;
4889;SDS011;2459;42.268;23.112;2023-03-14T05:13:08;37.57;;;14.40;;
4889;SDS011;2459;42.268;23.112;2023-03-14T05:15:34;42.40;;;16.10;;
4889;SDS011;2459;42.268;23.112;2023-03-14T05:18:01;38.30;;;16.07;;
4889;SDS011;2459;42.268;23.112;2023-03-14T05:20:29;53.97;;;13.63;;
4889;SDS011;2459;42.268;23.112;2023-03-14T05:22:56;31.57;;;13.80;;
4889;SDS011;2459;42.268;23.112;2023-03-14T05:25:22;35.50;;;14.10;;
4889;SDS011;2459;42.268;23.112;2023-03-14T05:27:49;24.27;;;11.87;;
4889;SDS011;2459;42.268;23.112;2023-03-14T05:30:15;28.53;;;10.50;;
4889;SDS011;2459;42.268;23.112;2023-03-14T05:32:42;33.47;;;15.07;;
4889;SDS011;2459;42.268;23.112;2023-03-14T05:35:08;31.83;;;14.77;;
4889;SDS011;2459;42.268;23.112;2023-03-14T05:37:36;25.53;;;12.07;;
4889;SDS011;2459;42.268;23.112;2023-03-14T05:40:03;30.80;;;12.33;;
4889;SDS011;2459;42.268;23.112;2023-03-14T05:42:31;39.40;;;15.70;;
4889;SDS011;2459;42.268;23.112;2023-03-14T05:44:57;48.57;;;14.70;;
4889;SDS011;2459;42.268;23.112;2023-03-14T05:47:24;20.73;;;11.20;;
4889;SDS011;2459;42.268;23.112;2023-03-14T05:49:50;26.27;;;12.90;;
4889;SDS011;2459;42.268;23.112;2023-03-14T05:52:17;38.80;;;13.77;;
4889;SDS011;2459;42.268;23.112;2023-03-14T05:54:45;44.57;;;19.33;;
4889;SDS011;2459;42.268;23.112;2023-03-14T05:57:11;42.17;;;14.27;;
4889;SDS011;2459;42.268;23.112;2023-03-14T05:59:38;45.17;;;17.57;;
4889;SDS011;2459;42.268;23.112;2023-03-14T06:02:05;45.27;;;16.83;;
4889;SDS011;2459;42.268;23.112;2023-03-14T06:04:31;43.50;;;18.13;;
4889;SDS011;2459;42.268;23.112;2023-03-14T06:06:58;35.73;;;16.50;;
4889;SDS011;2459;42.268;23.112;2023-03-14T06:09:24;36.83;;;16.17;;
4889;SDS011;2459;42.268;23.112;2023-03-14T06:11:52;33.23;;;14.70;;
4889;SDS011;2459;42.268;23.112;2023-03-14T06:14:19;39.00;;;14.60;;
4889;SDS011;2459;42.268;23.112;2023-03-14T06:16:46;39.10;;;15.73;;
4889;SDS011;2459;42.268;23.112;2023-03-14T06:19:14;28.27;;;14.53;;
4889;SDS011;2459;42.268;23.112;2023-03-14T06:21:41;37.73;;;15.47;;
4889;SDS011;2459;42.268;23.112;2023-03-14T06:24:08;29.30;;;13.60;;
4889;SDS011;2459;42.268;23.112;2023-03-14T06:26:35;30.93;;;12.90;;
4889;SDS011;2459;42.268;23.112;2023-03-14T06:29:02;25.53;;;12.10;;
4889;SDS011;2459;42.268;23.112;2023-03-14T06:31:30;30.53;;;11.60;;
4889;SDS011;2459;42.268;23.112;2023-03-14T06:33:56;21.57;;;11.50;;
4889;SDS011;2459;42.268;23.112;2023-03-14T06:36:23;38.40;;;13.97;;
4889;SDS011;2459;42.268;23.112;2023-03-14T06:38:51;36.03;;;14.40;;
4889;SDS011;2459;42.268;23.112;2023-03-14T06:41:18;27.53;;;12.70;;
4889;SDS011;2459;42.268;23.112;2023-03-14T06:43:44;37.10;;;12.43;;
4889;SDS011;2459;42.268;23.112;2023-03-14T06:46:12;31.47;;;12.20;;
4889;SDS011;2459;42.268;23.112;2023-03-14T06:48:40;31.23;;;12.73;;
4889;SDS011;2459;42.268;23.112;2023-03-14T06:51:07;26.07;;;13.67;;
4889;SDS011;2459;42.268;23.112;2023-03-14T06:53:33;31.17;;;13.27;;
4889;SDS011;2459;42.268;23.112;2023-03-14T06:56:00;25.43;;;14.00;;
4889;SDS011;2459;42.268;23.112;2023-03-14T06:58:26;37.63;;;13.13;;
4889;SDS011;2459;42.268;23.112;2023-03-14T07:00:53;39.03;;;14.87;;
4889;SDS011;2459;42.268;23.112;2023-03-14T07:03:21;40.63;;;14.60;;
4889;SDS011;2459;42.268;23.112;2023-03-14T07:05:47;31.90;;;13.50;;
4889;SDS011;2459;42.268;23.112;2023-03-14T07:08:14;41.03;;;13.73;;
4889;SDS011;2459;42.268;23.112;2023-03-14T07:10:40;37.47;;;13.37;;
4889;SDS011;2459;42.268;23.112;2023-03-14T07:13:07;62.03;;;16.77;;
4889;SDS011;2459;42.268;23.112;2023-03-14T07:15:34;40.47;;;13.73;;
4889;SDS011;2459;42.268;23.112;2023-03-14T07:18:00;30.90;;;11.47;;
4889;SDS011;2459;42.268;23.112;2023-03-14T07:20:28;34.43;;;13.20;;
4889;SDS011;2459;42.268;23.112;2023-03-14T07:22:58;23.33;;;9.70;;
4889;SDS011;2459;42.268;23.112;2023-03-14T07:25:27;18.30;;;9.63;;
4889;SDS011;2459;42.268;23.112;2023-03-14T07:27:54;27.70;;;11.90;;
4889;SDS011;2459;42.268;23.112;2023-03-14T07:30:21;23.80;;;13.40;;
4889;SDS011;2459;42.268;23.112;2023-03-14T07:32:47;28.80;;;11.00;;
4889;SDS011;2459;42.268;23.112;2023-03-14T07:35:16;22.60;;;9.07;;
4889;SDS011;2459;42.268;23.112;2023-03-14T07:37:44;17.60;;;9.23;;
4889;SDS011;2459;42.268;23.112;2023-03-14T07:40:11;13.47;;;7.23;;
4889;SDS011;2459;42.268;23.112;2023-03-14T07:42:40;14.57;;;7.30;;
4889;SDS011;2459;42.268;23.112;2023-03-14T07:45:07;13.50;;;8.07;;
4889;SDS011;2459;42.268;23.112;2023-03-14T07:47:33;18.73;;;7.93;;
4889;SDS011;2459;42.268;23.112;2023-03-14T07:50:00;18.20;;;9.00;;
4889;SDS011;2459;42.268;23.112;2023-03-14T07:52:26;24.53;;;10.70;;
4889;SDS011;2459;42.268;23.112;2023-03-14T07:54:54;17.80;;;9.10;;
4889;SDS011;2459;42.268;23.112;2023-03-14T07:57:21;31.77;;;9.17;;
4889;SDS011;2459;42.268;23.112;2023-03-14T07:59:47;19.23;;;7.77;;
4889;SDS011;2459;42.268;23.112;2023-03-14T08:02:14;15.43;;;7.40;;
4889;SDS011;2459;42.268;23.112;2023-03-14T08:04:41;20.00;;;7.90;;
4889;SDS011;2459;42.268;23.112;2023-03-14T08:07:07;18.00;;;8.90;;
4889;SDS011;2459;42.268;23.112;2023-03-14T08:09:34;19.10;;;8.97;;
4889;SDS011;2459;42.268;23.112;2023-03-14T08:12:02;18.73;;;8.27;;
4889;SDS011;2459;42.268;23.112;2023-03-14T08:14:28;23.60;;;9.47;;
4889;SDS011;2459;42.268;23.112;2023-03-14T08:16:56;13.83;;;8.33;;
4889;SDS011;2459;42.268;23.112;2023-03-14T08:19:22;14.00;;;8.03;;
4889;SDS011;2459;42.268;23.112;2023-03-14T08:21:49;19.17;;;7.80;;
4889;SDS011;2459;42.268;23.112;2023-03-14T08:24:16;14.23;;;6.80;;
4889;SDS011;2459;42.268;23.112;2023-03-14T08:26:42;18.63;;;8.23;;
4889;SDS011;2459;42.268;23.112;2023-03-14T08:29:10;16.57;;;8.17;;
4889;SDS011;2459;42.268;23.112;2023-03-14T08:31:38;18.80;;;8.00;;
4889;SDS011;2459;42.268;23.112;2023-03-14T08:34:04;17.57;;;6.80;;
4889;SDS011;2459;42.268;23.112;2023-03-14T08:36:31;15.90;;;5.60;;
4889;SDS011;2459;42.268;23.112;2023-03-14T08:38:58;17.20;;;8.53;;
4889;SDS011;2459;42.268;23.112;2023-03-14T08:41:24;22.90;;;8.30;;
4889;SDS011;2459;42.268;23.112;2023-03-14T08:43:51;12.13;;;7.40;;
4889;SDS011;2459;42.268;23.112;2023-03-14T08:46:19;11.87;;;5.73;;
4889;SDS011;2459;42.268;23.112;2023-03-14T08:48:46;7.73;;;5.43;;
4889;SDS011;2459;42.268;23.112;2023-03-14T08:51:13;8.57;;;5.13;;
4889;SDS011;2459;42.268;23.112;2023-03-14T08:53:40;8.63;;;4.67;;
4889;SDS011;2459;42.268;23.112;2023-03-14T08:56:07;20.97;;;4.63;;
4889;SDS011;2459;42.268;23.112;2023-03-14T08:58:35;19.53;;;8.33;;
4889;SDS011;2459;42.268;23.112;2023-03-14T09:01:03;9.23;;;5.30;;
4889;SDS011;2459;42.268;23.112;2023-03-14T09:03:31;11.20;;;5.67;;
4889;SDS011;2459;42.268;23.112;2023-03-14T09:06:01;6.20;;;4.60;;
4889;SDS011;2459;42.268;23.112;2023-03-14T09:08:27;10.20;;;4.17;;
4889;SDS011;2459;42.268;23.112;2023-03-14T09:10:54;10.03;;;4.03;;
4889;SDS011;2459;42.268;23.112;2023-03-14T09:13:20;10.60;;;4.20;;
4889;SDS011;2459;42.268;23.112;2023-03-14T09:15:49;11.30;;;4.20;;
4889;SDS011;2459;42.268;23.112;2023-03-14T09:18:16;6.97;;;4.10;;
4889;SDS011;2459;42.268;23.112;2023-03-14T09:20:44;11.40;;;5.50;;
4889;SDS011;2459;42.268;23.112;2023-03-14T09:23:10;6.33;;;4.50;;
4889;SDS011;2459;42.268;23.112;2023-03-14T09:25:37;9.13;;;5.23;;
4889;SDS011;2459;42.268;23.112;2023-03-14T09:28:04;19.13;;;6.30;;
4889;SDS011;2459;42.268;23.112;2023-03-14T09:30:30;5.33;;;3.07;;
4889;SDS011;2459;42.268;23.112;2023-03-14T09:32:57;10.45;;;4.43;;
4889;SDS011;2459;42.268;23.112;2023-03-14T09:35:24;9.57;;;4.50;;
4889;SDS011;2459;42.268;23.112;2023-03-14T09:37:52;9.70;;;4.45;;
4889;SDS011;2459;42.268;23.112;2023-03-14T09:40:19;9.65;;;4.40;;
4889;SDS011;2459;42.268;23.112;2023-03-14T09:42:46;6.60;;;3.90;;
4889;SDS011;2459;42.268;23.112;2023-03-14T09:45:15;8.25;;;4.10;;
4889;SDS011;2459;42.268;23.112;2023-03-14T09:47:43;16.90;;;4.00;;
4889;SDS011;2459;42.268;23.112;2023-03-14T09:50:12;11.82;;;4.47;;
4889;SDS011;2459;42.268;23.112;2023-03-14T09:52:39;5.82;;;3.70;;
4889;SDS011;2459;42.268;23.112;2023-03-14T09:55:11;6.05;;;3.50;;
4889;SDS011;2459;42.268;23.112;2023-03-14T09:57:39;8.57;;;4.18;;
4889;SDS011;2459;42.268;23.112;2023-03-14T10:00:10;10.50;;;5.65;;
4889;SDS011;2459;42.268;23.112;2023-03-14T10:02:40;12.82;;;4.05;;
4889;SDS011;2459;42.268;23.112;2023-03-14T10:05:13;6.15;;;4.03;;
4889;SDS011;2459;42.268;23.112;2023-03-14T10:07:40;10.48;;;3.35;;
4889;SDS011;2459;42.268;23.112;2023-03-14T10:10:09;6.95;;;4.45;;
4889;SDS011;2459;42.268;23.112;2023-03-14T10:12:37;8.43;;;3.72;;
4889;SDS011;2459;42.268;23.112;2023-03-14T10:15:05;5.22;;;3.90;;
4889;SDS011;2459;42.268;23.112;2023-03-14T10:17:38;9.13;;;4.72;;
4889;SDS011;2459;42.268;23.112;2023-03-14T10:20:05;13.73;;;4.28;;
4889;SDS011;2459;42.268;23.112;2023-03-14T10:22:32;13.70;;;4.88;;
4889;SDS011;2459;42.268;23.112;2023-03-14T10:25:00;10.38;;;4.00;;
4889;SDS011;2459;42.268;23.112;2023-03-14T10:27:28;19.52;;;7.90;;
4889;SDS011;2459;42.268;23.112;2023-03-14T10:29:57;8.45;;;5.10;;
4889;SDS011;2459;42.268;23.112;2023-03-14T10:32:28;5.10;;;4.25;;
4889;SDS011;2459;42.268;23.112;2023-03-14T10:35:05;9.70;;;5.10;;
4889;SDS011;2459;42.268;23.112;2023-03-14T10:37:33;10.45;;;5.00;;
4889;SDS011;2459;42.268;23.112;2023-03-14T10:40:00;5.05;;;3.80;;
4889;SDS011;2459;42.268;23.112;2023-03-14T10:42:30;8.88;;;4.70;;
4889;SDS011;2459;42.268;23.112;2023-03-14T10:45:01;9.10;;;5.53;;
4889;SDS011;2459;42.268;23.112;2023-03-14T10:47:28;12.50;;;5.00;;
4889;SDS011;2459;42.268;23.112;2023-03-14T10:49:56;7.28;;;4.72;;
4889;SDS011;2459;42.268;23.112;2023-03-14T10:52:24;12.20;;;5.00;;
4889;SDS011;2459;42.268;23.112;2023-03-14T10:54:54;9.47;;;4.63;;
4889;SDS011;2459;42.268;23.112;2023-03-14T10:57:21;8.57;;;5.00;;
4889;SDS011;2459;42.268;23.112;2023-03-14T10:59:47;14.87;;;4.80;;
4889;SDS011;2459;42.268;23.112;2023-03-14T11:02:20;10.57;;;5.30;;
4889;SDS011;2459;42.268;23.112;2023-03-14T11:04:54;7.17;;;4.63;;
4889;SDS011;2459;42.268;23.112;2023-03-14T11:07:22;8.40;;;4.80;;
4889;SDS011;2459;42.268;23.112;2023-03-14T11:09:51;8.50;;;4.83;;
4889;SDS011;2459;42.268;23.112;2023-03-14T11:12:25;9.73;;;5.17;;
4889;SDS011;2459;42.268;23.112;2023-03-14T11:14:57;6.87;;;5.10;;
4889;SDS011;2459;42.268;23.112;2023-03-14T11:17:31;15.47;;;9.53;;
4889;SDS011;2459;42.268;23.112;2023-03-14T11:20:04;10.23;;;5.10;;
4889;SDS011;2459;42.268;23.112;2023-03-14T11:22:36;9.13;;;4.60;;
4889;SDS011;2459;42.268;23.112;2023-03-14T11:25:13;85.63;;;16.17;;
4889;SDS011;2459;42.268;23.112;2023-03-14T11:27:42;6.65;;;3.35;;
4889;SDS011;2459;42.268;23.112;2023-03-14T11:30:14;10.40;;;3.97;;
4889;SDS011;2459;42.268;23.112;2023-03-14T11:32:45;7.15;;;4.78;;
4889;SDS011;2459;42.268;23.112;2023-03-14T11:35:15;4.22;;;2.90;;
4889;SDS011;2459;42.268;23.112;2023-03-14T11:37:44;28.50;;;4.65;;
4889;SDS011;2459;42.268;23.112;2023-03-14T11:40:13;16.00;;;3.85;;
4889;SDS011;2459;42.268;23.112;2023-03-14T11:42:41;9.57;;;4.63;;
4889;SDS011;2459;42.268;23.112;2023-03-14T11:45:11;5.78;;;3.95;;
4889;SDS011;2459;42.268;23.112;2023-03-14T11:47:41;6.18;;;3.67;;
4889;SDS011;2459;42.268;23.112;2023-03-14T11:50:12;29.80;;;8.07;;
4889;SDS011;2459;42.268;23.112;2023-03-14T11:52:43;31.85;;;15.32;;
4889;SDS011;2459;42.268;23.112;2023-03-14T11:55:15;45.97;;;14.05;;
4889;SDS011;2459;42.268;23.112;2023-03-14T11:57:43;5.22;;;3.17;;
4889;SDS011;2459;42.268;23.112;2023-03-14T12:00:13;18.08;;;5.47;;
4889;SDS011;2459;42.268;23.112;2023-03-14T12:02:43;5.63;;;2.53;;
4889;SDS011;2459;42.268;23.112;2023-03-14T12:05:22;11.90;;;3.33;;
4889;SDS011;2459;42.268;23.112;2023-03-14T12:07:58;12.93;;;3.70;;
4889;SDS011;2459;42.268;23.112;2023-03-14T12:10:29;10.60;;;3.83;;
4889;SDS011;2459;42.268;23.112;2023-03-14T12:12:56;4.53;;;3.28;;
4889;SDS011;2459;42.268;23.112;2023-03-14T12:15:23;5.60;;;4.00;;
4889;SDS011;2459;42.268;23.112;2023-03-14T12:17:52;6.47;;;4.53;;
4889;SDS011;2459;42.268;23.112;2023-03-14T12:20:20;8.30;;;3.13;;
4889;SDS011;2459;42.268;23.112;2023-03-14T12:22:49;5.28;;;3.40;;
4889;SDS011;2459;42.268;23.112;2023-03-14T12:25:17;11.27;;;3.92;;
4889;SDS011;2459;42.268;23.112;2023-03-14T12:27:49;6.45;;;3.30;;
4889;SDS011;2459;42.268;23.112;2023-03-14T12:30:29;5.95;;;3.50;;
4889;SDS011;2459;42.268;23.112;2023-03-14T12:33:12;5.10;;;2.70;;
4889;SDS011;2459;42.268;23.112;2023-03-14T12:35:39;11.77;;;3.17;;
4889;SDS011;2459;42.268;23.112;2023-03-14T12:38:08;4.35;;;2.30;;
4889;SDS011;2459;42.268;23.112;2023-03-14T12:40:37;19.58;;;4.72;;
4889;SDS011;2459;42.268;23.112;2023-03-14T12:43:10;16.48;;;2.45;;
4889;SDS011;2459;42.268;23.112;2023-03-14T12:48:31;10.27;;;5.38;;
4889;SDS011;2459;42.268;23.112;2023-03-14T12:51:00;17.23;;;4.38;;
4889;SDS011;2459;42.268;23.112;2023-03-14T12:53:42;4.65;;;2.65;;
4889;SDS011;2459;42.268;23.112;2023-03-14T12:56:11;6.30;;;2.70;;
4889;SDS011;2459;42.268;23.112;2023-03-14T12:58:43;6.93;;;3.03;;
4889;SDS011;2459;42.268;23.112;2023-03-14T13:01:14;2.65;;;2.28;;
4889;SDS011;2459;42.268;23.112;2023-03-14T13:03:43;3.97;;;2.15;;
4889;SDS011;2459;42.268;23.112;2023-03-14T13:06:45;2.45;;;1.63;;
4889;SDS011;2459;42.268;23.112;2023-03-14T13:09:01;2.70;;;2.50;;
4889;SDS011;2459;42.268;23.112;2023-03-14T13:11:47;17.90;;;6.50;;
4889;SDS011;2459;42.268;23.112;2023-03-14T13:14:14;3.47;;;2.17;;
4889;SDS011;2459;42.268;23.112;2023-03-14T13:16:41;15.82;;;3.20;;
4889;SDS011;2459;42.268;23.112;2023-03-14T13:19:11;6.80;;;2.60;;
4889;SDS011;2459;42.268;23.112;2023-03-14T13:21:41;21.03;;;7.73;;
4889;SDS011;2459;42.268;23.112;2023-03-14T13:24:20;13.33;;;5.70;;
4889;SDS011;2459;42.268;23.112;2023-03-14T13:26:47;12.60;;;6.90;;
4889;SDS011;2459;42.268;23.112;2023-03-14T13:29:15;18.03;;;5.27;;
4889;SDS011;2459;42.268;23.112;2023-03-14T13:31:43;14.50;;;5.73;;
4889;SDS011;2459;42.268;23.112;2023-03-14T13:34:10;35.03;;;10.17;;
4889;SDS011;2459;42.268;23.112;2023-03-14T13:36:37;11.33;;;4.67;;
4889;SDS011;2459;42.268;23.112;2023-03-14T13:39:04;8.90;;;4.43;;
4889;SDS011;2459;42.268;23.112;2023-03-14T13:41:39;7.90;;;3.30;;
4889;SDS011;2459;42.268;23.112;2023-03-14T13:44:07;15.43;;;4.40;;
4889;SDS011;2459;42.268;23.112;2023-03-14T13:46:34;12.87;;;3.10;;
4889;SDS011;2459;42.268;23.112;2023-03-14T13:49:02;10.50;;;2.70;;
4889;SDS011;2459;42.268;23.112;2023-03-14T13:51:29;5.27;;;3.30;;
4889;SDS011;2459;42.268;23.112;2023-03-14T13:53:59;7.33;;;3.80;;
4889;SDS011;2459;42.268;23.112;2023-03-14T13:56:27;8.83;;;2.60;;
4889;SDS011;2459;42.268;23.112;2023-03-14T13:58:55;8.53;;;2.80;;
4889;SDS011;2459;42.268;23.112;2023-03-14T14:01:22;5.47;;;2.43;;
4889;SDS011;2459;42.268;23.112;2023-03-14T14:03:50;15.83;;;3.83;;
4889;SDS011;2459;42.268;23.112;2023-03-14T14:06:27;19.63;;;3.83;;
4889;SDS011;2459;42.268;23.112;2023-03-14T14:08:54;4.60;;;2.80;;
4889;SDS011;2459;42.268;23.112;2023-03-14T14:11:26;16.27;;;2.60;;
4889;SDS011;2459;42.268;23.112;2023-03-14T14:13:57;4.47;;;3.33;;
4889;SDS011;2459;42.268;23.112;2023-03-14T14:16:24;16.63;;;3.07;;
4889;SDS011;2459;42.268;23.112;2023-03-14T14:18:52;7.00;;;2.20;;
4889;SDS011;2459;42.268;23.112;2023-03-14T14:21:21;2.70;;;1.97;;
4889;SDS011;2459;42.268;23.112;2023-03-14T14:23:48;8.83;;;3.33;;
4889;SDS011;2459;42.268;23.112;2023-03-14T14:26:16;4.33;;;2.50;;
4889;SDS011;2459;42.268;23.112;2023-03-14T14:28:43;3.50;;;2.23;;
4889;SDS011;2459;42.268;23.112;2023-03-14T14:31:19;18.77;;;6.40;;
4889;SDS011;2459;42.268;23.112;2023-03-14T14:33:52;9.27;;;3.20;;
4889;SDS011;2459;42.268;23.112;2023-03-14T14:36:20;13.13;;;5.33;;
4889;SDS011;2459;42.268;23.112;2023-03-14T14:38:51;4.50;;;2.57;;
4889;SDS011;2459;42.268;23.112;2023-03-14T14:41:18;5.00;;;3.33;;
4889;SDS011;2459;42.268;23.112;2023-03-14T14:43:45;9.23;;;3.07;;
4889;SDS011;2459;42.268;23.112;2023-03-14T14:46:14;10.63;;;3.70;;
4889;SDS011;2459;42.268;23.112;2023-03-14T14:48:44;8.70;;;3.70;;
4889;SDS011;2459;42.268;23.112;2023-03-14T14:51:21;12.53;;;4.50;;
4889;SDS011;2459;42.268;23.112;2023-03-14T14:53:48;6.10;;;3.53;;